<?xml version="1.0" encoding="UTF-8" standalone="no" ?>
<gpx xmlns="http://www.topografix.com/GPX/1/1" xmlns:xsi="http://www.w3.org/2001/XMLSchema-instance" xsi:schemaLocation="http://www.topografix.com/GPX/1/1 http://www.topografix.com/GPX/1/1/gpx.xsd" version="1.1" creator="VisuGPX - https://www.visugpx.com">
  <metadata>
    <name>VacancesDricouZoe</name>
  </metadata>
  <trk>
    <name><![CDATA[Journal actif: 2021-07-05 15:58]]></name>
    <trkseg>
      <trkpt lat="43.3472" lon="-1.78714">
        <ele>0.62</ele>
        <time>2021-07-05T17:58:56Z</time>
      </trkpt>
      <trkpt lat="43.34728" lon="-1.7871">
        <ele>1.1</ele>
        <time>2021-07-05T17:59:46Z</time>
      </trkpt>
      <trkpt lat="43.34747" lon="-1.78698">
        <ele>1.58</ele>
        <time>2021-07-05T18:00:00Z</time>
      </trkpt>
      <trkpt lat="43.34757" lon="-1.78673">
        <ele>2.06</ele>
        <time>2021-07-05T18:00:10Z</time>
      </trkpt>
      <trkpt lat="43.34771" lon="-1.78653">
        <ele>2.54</ele>
        <time>2021-07-05T18:00:21Z</time>
      </trkpt>
      <trkpt lat="43.34796" lon="-1.78649">
        <ele>2.54</ele>
        <time>2021-07-05T18:00:33Z</time>
      </trkpt>
      <trkpt lat="43.34822" lon="-1.7862">
        <ele>3.5</ele>
        <time>2021-07-05T18:00:47Z</time>
      </trkpt>
      <trkpt lat="43.34842" lon="-1.78594">
        <ele>4.46</ele>
        <time>2021-07-05T18:01:02Z</time>
      </trkpt>
      <trkpt lat="43.34855" lon="-1.78578">
        <ele>4.94</ele>
        <time>2021-07-05T18:01:15Z</time>
      </trkpt>
      <trkpt lat="43.34873" lon="-1.78553">
        <ele>5.91</ele>
        <time>2021-07-05T18:01:30Z</time>
      </trkpt>
      <trkpt lat="43.34878" lon="-1.78548">
        <ele>6.39</ele>
        <time>2021-07-05T18:01:41Z</time>
      </trkpt>
      <trkpt lat="43.34891" lon="-1.7853">
        <ele>6.87</ele>
        <time>2021-07-05T18:01:59Z</time>
      </trkpt>
      <trkpt lat="43.34943" lon="-1.7846">
        <ele>6.87</ele>
        <time>2021-07-05T18:02:18Z</time>
      </trkpt>
      <trkpt lat="43.34977" lon="-1.78416">
        <ele>6.87</ele>
        <time>2021-07-05T18:02:29Z</time>
      </trkpt>
      <trkpt lat="43.35014" lon="-1.78363">
        <ele>8.31</ele>
        <time>2021-07-05T18:02:35Z</time>
      </trkpt>
      <trkpt lat="43.35016" lon="-1.78353">
        <ele>8.79</ele>
        <time>2021-07-05T18:02:36Z</time>
      </trkpt>
      <trkpt lat="43.35019" lon="-1.78343">
        <ele>9.27</ele>
        <time>2021-07-05T18:02:37Z</time>
      </trkpt>
      <trkpt lat="43.35021" lon="-1.78333">
        <ele>9.27</ele>
        <time>2021-07-05T18:02:38Z</time>
      </trkpt>
      <trkpt lat="43.35021" lon="-1.78333">
        <ele>9.75</ele>
        <time>2021-07-05T18:02:39Z</time>
      </trkpt>
      <trkpt lat="43.35024" lon="-1.78322">
        <ele>9.75</ele>
        <time>2021-07-05T18:02:40Z</time>
      </trkpt>
      <trkpt lat="43.35026" lon="-1.78312">
        <ele>9.75</ele>
        <time>2021-07-05T18:02:41Z</time>
      </trkpt>
      <trkpt lat="43.35027" lon="-1.78301">
        <ele>9.27</ele>
        <time>2021-07-05T18:02:42Z</time>
      </trkpt>
      <trkpt lat="43.35029" lon="-1.78279">
        <ele>9.27</ele>
        <time>2021-07-05T18:02:43Z</time>
      </trkpt>
      <trkpt lat="43.35029" lon="-1.78238">
        <ele>8.31</ele>
        <time>2021-07-05T18:02:48Z</time>
      </trkpt>
      <trkpt lat="43.35029" lon="-1.7823">
        <ele>8.31</ele>
        <time>2021-07-05T18:02:49Z</time>
      </trkpt>
      <trkpt lat="43.35" lon="-1.78122">
        <ele>10.23</ele>
        <time>2021-07-05T18:03:01Z</time>
      </trkpt>
      <trkpt lat="43.34994" lon="-1.78087">
        <ele>10.71</ele>
        <time>2021-07-05T18:03:03Z</time>
      </trkpt>
      <trkpt lat="43.34991" lon="-1.78073">
        <ele>10.71</ele>
        <time>2021-07-05T18:03:04Z</time>
      </trkpt>
      <trkpt lat="43.34991" lon="-1.78073">
        <ele>10.23</ele>
        <time>2021-07-05T18:03:05Z</time>
      </trkpt>
      <trkpt lat="43.34979" lon="-1.77892">
        <ele>8.79</ele>
        <time>2021-07-05T18:03:18Z</time>
      </trkpt>
      <trkpt lat="43.34958" lon="-1.77704">
        <ele>8.79</ele>
        <time>2021-07-05T18:03:30Z</time>
      </trkpt>
      <trkpt lat="43.34965" lon="-1.77501">
        <ele>5.42</ele>
        <time>2021-07-05T18:03:43Z</time>
      </trkpt>
      <trkpt lat="43.34973" lon="-1.7735">
        <ele>0.62</ele>
        <time>2021-07-05T18:03:54Z</time>
      </trkpt>
      <trkpt lat="43.34987" lon="-1.77265">
        <ele>-0.34</ele>
        <time>2021-07-05T18:04:03Z</time>
      </trkpt>
      <trkpt lat="43.34988" lon="-1.77254">
        <ele>-0.34</ele>
        <time>2021-07-05T18:04:04Z</time>
      </trkpt>
      <trkpt lat="43.34987" lon="-1.77242">
        <ele>-0.34</ele>
        <time>2021-07-05T18:04:05Z</time>
      </trkpt>
      <trkpt lat="43.34985" lon="-1.7723">
        <ele>-0.34</ele>
        <time>2021-07-05T18:04:06Z</time>
      </trkpt>
      <trkpt lat="43.34982" lon="-1.77219">
        <ele>-0.34</ele>
        <time>2021-07-05T18:04:07Z</time>
      </trkpt>
      <trkpt lat="43.34977" lon="-1.77209">
        <ele>-0.34</ele>
        <time>2021-07-05T18:04:08Z</time>
      </trkpt>
      <trkpt lat="43.34923" lon="-1.77065">
        <ele>0.62</ele>
        <time>2021-07-05T18:04:22Z</time>
      </trkpt>
      <trkpt lat="43.34916" lon="-1.77043">
        <ele>1.1</ele>
        <time>2021-07-05T18:04:26Z</time>
      </trkpt>
      <trkpt lat="43.34916" lon="-1.77043">
        <ele>1.1</ele>
        <time>2021-07-05T18:04:27Z</time>
      </trkpt>
      <trkpt lat="43.34914" lon="-1.77038">
        <ele>0.62</ele>
        <time>2021-07-05T18:04:28Z</time>
      </trkpt>
      <trkpt lat="43.34912" lon="-1.77033">
        <ele>0.62</ele>
        <time>2021-07-05T18:04:29Z</time>
      </trkpt>
      <trkpt lat="43.3491" lon="-1.77029">
        <ele>0.62</ele>
        <time>2021-07-05T18:04:30Z</time>
      </trkpt>
      <trkpt lat="43.34907" lon="-1.77026">
        <ele>1.1</ele>
        <time>2021-07-05T18:04:31Z</time>
      </trkpt>
      <trkpt lat="43.34906" lon="-1.77018">
        <ele>1.58</ele>
        <time>2021-07-05T18:04:32Z</time>
      </trkpt>
      <trkpt lat="43.34907" lon="-1.77014">
        <ele>1.58</ele>
        <time>2021-07-05T18:04:33Z</time>
      </trkpt>
      <trkpt lat="43.34913" lon="-1.77004">
        <ele>1.58</ele>
        <time>2021-07-05T18:04:34Z</time>
      </trkpt>
      <trkpt lat="43.34913" lon="-1.77004">
        <ele>2.06</ele>
        <time>2021-07-05T18:04:35Z</time>
      </trkpt>
      <trkpt lat="43.34916" lon="-1.76998">
        <ele>2.06</ele>
        <time>2021-07-05T18:04:36Z</time>
      </trkpt>
      <trkpt lat="43.3492" lon="-1.76984">
        <ele>2.06</ele>
        <time>2021-07-05T18:04:37Z</time>
      </trkpt>
      <trkpt lat="43.3492" lon="-1.76977">
        <ele>2.06</ele>
        <time>2021-07-05T18:04:38Z</time>
      </trkpt>
      <trkpt lat="43.3492" lon="-1.76977">
        <ele>2.06</ele>
        <time>2021-07-05T18:04:39Z</time>
      </trkpt>
      <trkpt lat="43.3492" lon="-1.76968">
        <ele>2.06</ele>
        <time>2021-07-05T18:04:40Z</time>
      </trkpt>
      <trkpt lat="43.34917" lon="-1.76928">
        <ele>2.54</ele>
        <time>2021-07-05T18:04:46Z</time>
      </trkpt>
      <trkpt lat="43.34916" lon="-1.76922">
        <ele>2.54</ele>
        <time>2021-07-05T18:04:47Z</time>
      </trkpt>
      <trkpt lat="43.34912" lon="-1.76908">
        <ele>3.02</ele>
        <time>2021-07-05T18:04:48Z</time>
      </trkpt>
      <trkpt lat="43.3491" lon="-1.76902">
        <ele>3.5</ele>
        <time>2021-07-05T18:04:50Z</time>
      </trkpt>
      <trkpt lat="43.34907" lon="-1.76896">
        <ele>3.5</ele>
        <time>2021-07-05T18:04:51Z</time>
      </trkpt>
      <trkpt lat="43.34901" lon="-1.76861">
        <ele>4.46</ele>
        <time>2021-07-05T18:04:54Z</time>
      </trkpt>
      <trkpt lat="43.34901" lon="-1.76861">
        <ele>4.94</ele>
        <time>2021-07-05T18:04:55Z</time>
      </trkpt>
      <trkpt lat="43.34826" lon="-1.7672">
        <ele>3.5</ele>
        <time>2021-07-05T18:05:10Z</time>
      </trkpt>
      <trkpt lat="43.34755" lon="-1.76657">
        <ele>4.46</ele>
        <time>2021-07-05T18:05:19Z</time>
      </trkpt>
      <trkpt lat="43.34658" lon="-1.76569">
        <ele>7.83</ele>
        <time>2021-07-05T18:05:32Z</time>
      </trkpt>
      <trkpt lat="43.34642" lon="-1.76541">
        <ele>8.31</ele>
        <time>2021-07-05T18:05:34Z</time>
      </trkpt>
      <trkpt lat="43.34642" lon="-1.76541">
        <ele>8.79</ele>
        <time>2021-07-05T18:05:35Z</time>
      </trkpt>
      <trkpt lat="43.34638" lon="-1.76531">
        <ele>9.27</ele>
        <time>2021-07-05T18:05:36Z</time>
      </trkpt>
      <trkpt lat="43.34634" lon="-1.76523">
        <ele>9.27</ele>
        <time>2021-07-05T18:05:37Z</time>
      </trkpt>
      <trkpt lat="43.34631" lon="-1.76513">
        <ele>9.75</ele>
        <time>2021-07-05T18:05:38Z</time>
      </trkpt>
      <trkpt lat="43.34605" lon="-1.76414">
        <ele>13.6</ele>
        <time>2021-07-05T18:05:50Z</time>
      </trkpt>
      <trkpt lat="43.34604" lon="-1.7641">
        <ele>10.71</ele>
        <time>2021-07-05T18:06:02Z</time>
      </trkpt>
      <trkpt lat="43.34597" lon="-1.76381">
        <ele>9.75</ele>
        <time>2021-07-05T18:06:11Z</time>
      </trkpt>
      <trkpt lat="43.3458" lon="-1.76314">
        <ele>4.94</ele>
        <time>2021-07-05T18:06:24Z</time>
      </trkpt>
      <trkpt lat="43.34571" lon="-1.76275">
        <ele>2.54</ele>
        <time>2021-07-05T18:06:32Z</time>
      </trkpt>
      <trkpt lat="43.34571" lon="-1.76275">
        <ele>3.02</ele>
        <time>2021-07-05T18:06:33Z</time>
      </trkpt>
      <trkpt lat="43.34569" lon="-1.7627">
        <ele>3.02</ele>
        <time>2021-07-05T18:06:34Z</time>
      </trkpt>
      <trkpt lat="43.34565" lon="-1.76262">
        <ele>3.5</ele>
        <time>2021-07-05T18:06:35Z</time>
      </trkpt>
      <trkpt lat="43.34561" lon="-1.7626">
        <ele>3.98</ele>
        <time>2021-07-05T18:06:36Z</time>
      </trkpt>
      <trkpt lat="43.34554" lon="-1.76258">
        <ele>3.98</ele>
        <time>2021-07-05T18:06:37Z</time>
      </trkpt>
      <trkpt lat="43.34551" lon="-1.76257">
        <ele>4.46</ele>
        <time>2021-07-05T18:06:38Z</time>
      </trkpt>
      <trkpt lat="43.34551" lon="-1.76257">
        <ele>4.46</ele>
        <time>2021-07-05T18:06:39Z</time>
      </trkpt>
      <trkpt lat="43.34511" lon="-1.76204">
        <ele>4.94</ele>
        <time>2021-07-05T18:06:49Z</time>
      </trkpt>
      <trkpt lat="43.3447" lon="-1.76156">
        <ele>6.39</ele>
        <time>2021-07-05T18:06:56Z</time>
      </trkpt>
      <trkpt lat="43.34462" lon="-1.76145">
        <ele>6.39</ele>
        <time>2021-07-05T18:06:57Z</time>
      </trkpt>
      <trkpt lat="43.3445" lon="-1.76153">
        <ele>6.87</ele>
        <time>2021-07-05T18:06:59Z</time>
      </trkpt>
      <trkpt lat="43.34446" lon="-1.76149">
        <ele>6.87</ele>
        <time>2021-07-05T18:07:00Z</time>
      </trkpt>
      <trkpt lat="43.34442" lon="-1.76145">
        <ele>6.87</ele>
        <time>2021-07-05T18:07:01Z</time>
      </trkpt>
      <trkpt lat="43.34441" lon="-1.7613">
        <ele>6.87</ele>
        <time>2021-07-05T18:07:02Z</time>
      </trkpt>
      <trkpt lat="43.34441" lon="-1.7613">
        <ele>6.87</ele>
        <time>2021-07-05T18:07:03Z</time>
      </trkpt>
      <trkpt lat="43.34442" lon="-1.76128">
        <ele>6.87</ele>
        <time>2021-07-05T18:07:04Z</time>
      </trkpt>
      <trkpt lat="43.34446" lon="-1.76125">
        <ele>6.39</ele>
        <time>2021-07-05T18:07:05Z</time>
      </trkpt>
      <trkpt lat="43.34449" lon="-1.76123">
        <ele>5.42</ele>
        <time>2021-07-05T18:07:06Z</time>
      </trkpt>
      <trkpt lat="43.34456" lon="-1.76124">
        <ele>4.94</ele>
        <time>2021-07-05T18:07:07Z</time>
      </trkpt>
      <trkpt lat="43.3446" lon="-1.76129">
        <ele>4.46</ele>
        <time>2021-07-05T18:07:08Z</time>
      </trkpt>
      <trkpt lat="43.3446" lon="-1.76129">
        <ele>3.98</ele>
        <time>2021-07-05T18:07:09Z</time>
      </trkpt>
      <trkpt lat="43.34463" lon="-1.76131">
        <ele>3.98</ele>
        <time>2021-07-05T18:07:10Z</time>
      </trkpt>
      <trkpt lat="43.34463" lon="-1.76146">
        <ele>3.5</ele>
        <time>2021-07-05T18:07:11Z</time>
      </trkpt>
      <trkpt lat="43.34467" lon="-1.76151">
        <ele>3.5</ele>
        <time>2021-07-05T18:07:12Z</time>
      </trkpt>
      <trkpt lat="43.34471" lon="-1.76157">
        <ele>3.5</ele>
        <time>2021-07-05T18:07:13Z</time>
      </trkpt>
      <trkpt lat="43.34476" lon="-1.76162">
        <ele>3.02</ele>
        <time>2021-07-05T18:07:14Z</time>
      </trkpt>
      <trkpt lat="43.34484" lon="-1.76173">
        <ele>3.02</ele>
        <time>2021-07-05T18:07:15Z</time>
      </trkpt>
      <trkpt lat="43.34488" lon="-1.76177">
        <ele>2.54</ele>
        <time>2021-07-05T18:07:17Z</time>
      </trkpt>
      <trkpt lat="43.34495" lon="-1.76186">
        <ele>3.02</ele>
        <time>2021-07-05T18:07:18Z</time>
      </trkpt>
      <trkpt lat="43.34504" lon="-1.76196">
        <ele>3.02</ele>
        <time>2021-07-05T18:07:28Z</time>
      </trkpt>
      <trkpt lat="43.34504" lon="-1.76196">
        <ele>3.5</ele>
        <time>2021-07-05T18:09:08Z</time>
      </trkpt>
      <trkpt lat="43.34504" lon="-1.76196">
        <ele>3.5</ele>
        <time>2021-07-05T18:11:36Z</time>
      </trkpt>
      <trkpt lat="43.34504" lon="-1.76196">
        <ele>3.5</ele>
        <time>2021-07-05T18:12:05Z</time>
      </trkpt>
      <trkpt lat="43.34504" lon="-1.76196">
        <ele>3.5</ele>
        <time>2021-07-05T18:12:11Z</time>
      </trkpt>
      <trkpt lat="43.34507" lon="-1.762">
        <ele>3.98</ele>
        <time>2021-07-05T18:12:13Z</time>
      </trkpt>
      <trkpt lat="43.34522" lon="-1.76217">
        <ele>3.98</ele>
        <time>2021-07-05T18:12:28Z</time>
      </trkpt>
      <trkpt lat="43.34539" lon="-1.76235">
        <ele>3.98</ele>
        <time>2021-07-05T18:12:54Z</time>
      </trkpt>
      <trkpt lat="43.3455" lon="-1.76245">
        <ele>4.46</ele>
        <time>2021-07-05T18:13:01Z</time>
      </trkpt>
      <trkpt lat="43.34552" lon="-1.76247">
        <ele>4.46</ele>
        <time>2021-07-05T18:13:02Z</time>
      </trkpt>
      <trkpt lat="43.34563" lon="-1.7624">
        <ele>4.46</ele>
        <time>2021-07-05T18:13:04Z</time>
      </trkpt>
      <trkpt lat="43.34569" lon="-1.76245">
        <ele>4.46</ele>
        <time>2021-07-05T18:13:05Z</time>
      </trkpt>
      <trkpt lat="43.34569" lon="-1.7625">
        <ele>4.46</ele>
        <time>2021-07-05T18:13:06Z</time>
      </trkpt>
      <trkpt lat="43.3457" lon="-1.76254">
        <ele>3.98</ele>
        <time>2021-07-05T18:13:07Z</time>
      </trkpt>
      <trkpt lat="43.34568" lon="-1.76259">
        <ele>3.5</ele>
        <time>2021-07-05T18:13:08Z</time>
      </trkpt>
      <trkpt lat="43.34563" lon="-1.76261">
        <ele>3.02</ele>
        <time>2021-07-05T18:13:09Z</time>
      </trkpt>
      <trkpt lat="43.34563" lon="-1.76261">
        <ele>2.54</ele>
        <time>2021-07-05T18:13:10Z</time>
      </trkpt>
      <trkpt lat="43.34555" lon="-1.76258">
        <ele>2.54</ele>
        <time>2021-07-05T18:13:11Z</time>
      </trkpt>
      <trkpt lat="43.34555" lon="-1.76258">
        <ele>2.06</ele>
        <time>2021-07-05T18:13:12Z</time>
      </trkpt>
      <trkpt lat="43.34551" lon="-1.76257">
        <ele>2.54</ele>
        <time>2021-07-05T18:13:13Z</time>
      </trkpt>
      <trkpt lat="43.34499" lon="-1.76191">
        <ele>2.06</ele>
        <time>2021-07-05T18:13:24Z</time>
      </trkpt>
      <trkpt lat="43.34466" lon="-1.7615">
        <ele>3.02</ele>
        <time>2021-07-05T18:13:33Z</time>
      </trkpt>
      <trkpt lat="43.34447" lon="-1.7615">
        <ele>3.02</ele>
        <time>2021-07-05T18:13:35Z</time>
      </trkpt>
      <trkpt lat="43.34447" lon="-1.7615">
        <ele>3.02</ele>
        <time>2021-07-05T18:13:36Z</time>
      </trkpt>
      <trkpt lat="43.34444" lon="-1.76147">
        <ele>3.5</ele>
        <time>2021-07-05T18:13:37Z</time>
      </trkpt>
      <trkpt lat="43.34441" lon="-1.76139">
        <ele>3.5</ele>
        <time>2021-07-05T18:13:38Z</time>
      </trkpt>
      <trkpt lat="43.34441" lon="-1.76133">
        <ele>3.5</ele>
        <time>2021-07-05T18:13:39Z</time>
      </trkpt>
      <trkpt lat="43.34441" lon="-1.76129">
        <ele>3.5</ele>
        <time>2021-07-05T18:13:40Z</time>
      </trkpt>
      <trkpt lat="43.34446" lon="-1.76125">
        <ele>3.5</ele>
        <time>2021-07-05T18:13:41Z</time>
      </trkpt>
      <trkpt lat="43.34452" lon="-1.76116">
        <ele>3.02</ele>
        <time>2021-07-05T18:13:42Z</time>
      </trkpt>
      <trkpt lat="43.34452" lon="-1.7611">
        <ele>3.02</ele>
        <time>2021-07-05T18:13:43Z</time>
      </trkpt>
      <trkpt lat="43.34451" lon="-1.76103">
        <ele>2.54</ele>
        <time>2021-07-05T18:13:44Z</time>
      </trkpt>
      <trkpt lat="43.34451" lon="-1.76095">
        <ele>2.06</ele>
        <time>2021-07-05T18:13:45Z</time>
      </trkpt>
      <trkpt lat="43.34451" lon="-1.76086">
        <ele>1.58</ele>
        <time>2021-07-05T18:13:46Z</time>
      </trkpt>
      <trkpt lat="43.34448" lon="-1.75953">
        <ele>-1.79</ele>
        <time>2021-07-05T18:13:56Z</time>
      </trkpt>
      <trkpt lat="43.34456" lon="-1.7585">
        <ele>-0.34</ele>
        <time>2021-07-05T18:14:04Z</time>
      </trkpt>
      <trkpt lat="43.34456" lon="-1.75838">
        <ele>-0.34</ele>
        <time>2021-07-05T18:14:05Z</time>
      </trkpt>
      <trkpt lat="43.34454" lon="-1.75826">
        <ele>-0.82</ele>
        <time>2021-07-05T18:14:06Z</time>
      </trkpt>
      <trkpt lat="43.34453" lon="-1.75812">
        <ele>-0.82</ele>
        <time>2021-07-05T18:14:07Z</time>
      </trkpt>
      <trkpt lat="43.34451" lon="-1.75798">
        <ele>-0.82</ele>
        <time>2021-07-05T18:14:08Z</time>
      </trkpt>
      <trkpt lat="43.34448" lon="-1.75785">
        <ele>-1.3</ele>
        <time>2021-07-05T18:14:09Z</time>
      </trkpt>
      <trkpt lat="43.34444" lon="-1.75773">
        <ele>-1.3</ele>
        <time>2021-07-05T18:14:10Z</time>
      </trkpt>
      <trkpt lat="43.3444" lon="-1.75761">
        <ele>-1.3</ele>
        <time>2021-07-05T18:14:11Z</time>
      </trkpt>
      <trkpt lat="43.34374" lon="-1.7562">
        <ele>2.06</ele>
        <time>2021-07-05T18:14:22Z</time>
      </trkpt>
      <trkpt lat="43.34234" lon="-1.75404">
        <ele>0.14</ele>
        <time>2021-07-05T18:14:40Z</time>
      </trkpt>
      <trkpt lat="43.34133" lon="-1.75274">
        <ele>-0.82</ele>
        <time>2021-07-05T18:14:53Z</time>
      </trkpt>
      <trkpt lat="43.34075" lon="-1.7522">
        <ele>0.14</ele>
        <time>2021-07-05T18:15:01Z</time>
      </trkpt>
      <trkpt lat="43.34043" lon="-1.75218">
        <ele>0.14</ele>
        <time>2021-07-05T18:15:05Z</time>
      </trkpt>
      <trkpt lat="43.34035" lon="-1.75218">
        <ele>0.14</ele>
        <time>2021-07-05T18:15:06Z</time>
      </trkpt>
      <trkpt lat="43.33983" lon="-1.75214">
        <ele>0.14</ele>
        <time>2021-07-05T18:15:13Z</time>
      </trkpt>
      <trkpt lat="43.33977" lon="-1.7521">
        <ele>0.14</ele>
        <time>2021-07-05T18:15:14Z</time>
      </trkpt>
      <trkpt lat="43.3397" lon="-1.75205">
        <ele>0.14</ele>
        <time>2021-07-05T18:15:15Z</time>
      </trkpt>
      <trkpt lat="43.33964" lon="-1.752">
        <ele>0.14</ele>
        <time>2021-07-05T18:15:16Z</time>
      </trkpt>
      <trkpt lat="43.33959" lon="-1.75194">
        <ele>0.14</ele>
        <time>2021-07-05T18:15:17Z</time>
      </trkpt>
      <trkpt lat="43.33954" lon="-1.75187">
        <ele>0.62</ele>
        <time>2021-07-05T18:15:18Z</time>
      </trkpt>
      <trkpt lat="43.3395" lon="-1.7518">
        <ele>0.62</ele>
        <time>2021-07-05T18:15:19Z</time>
      </trkpt>
      <trkpt lat="43.3395" lon="-1.75171">
        <ele>0.62</ele>
        <time>2021-07-05T18:15:20Z</time>
      </trkpt>
      <trkpt lat="43.3395" lon="-1.75162">
        <ele>1.1</ele>
        <time>2021-07-05T18:15:21Z</time>
      </trkpt>
      <trkpt lat="43.3395" lon="-1.75148">
        <ele>1.1</ele>
        <time>2021-07-05T18:15:22Z</time>
      </trkpt>
      <trkpt lat="43.3395" lon="-1.75148">
        <ele>1.1</ele>
        <time>2021-07-05T18:15:23Z</time>
      </trkpt>
      <trkpt lat="43.3394" lon="-1.75137">
        <ele>1.1</ele>
        <time>2021-07-05T18:15:24Z</time>
      </trkpt>
      <trkpt lat="43.3394" lon="-1.75137">
        <ele>1.1</ele>
        <time>2021-07-05T18:15:25Z</time>
      </trkpt>
      <trkpt lat="43.33937" lon="-1.75129">
        <ele>1.58</ele>
        <time>2021-07-05T18:15:26Z</time>
      </trkpt>
      <trkpt lat="43.33938" lon="-1.75123">
        <ele>1.58</ele>
        <time>2021-07-05T18:15:27Z</time>
      </trkpt>
      <trkpt lat="43.33944" lon="-1.75119">
        <ele>1.58</ele>
        <time>2021-07-05T18:15:28Z</time>
      </trkpt>
      <trkpt lat="43.33948" lon="-1.75118">
        <ele>2.06</ele>
        <time>2021-07-05T18:15:29Z</time>
      </trkpt>
      <trkpt lat="43.33952" lon="-1.75116">
        <ele>2.54</ele>
        <time>2021-07-05T18:15:30Z</time>
      </trkpt>
      <trkpt lat="43.33952" lon="-1.75116">
        <ele>2.54</ele>
        <time>2021-07-05T18:15:31Z</time>
      </trkpt>
      <trkpt lat="43.33962" lon="-1.75119">
        <ele>2.54</ele>
        <time>2021-07-05T18:15:32Z</time>
      </trkpt>
      <trkpt lat="43.33966" lon="-1.75115">
        <ele>3.5</ele>
        <time>2021-07-05T18:15:33Z</time>
      </trkpt>
      <trkpt lat="43.33971" lon="-1.7511">
        <ele>5.42</ele>
        <time>2021-07-05T18:15:34Z</time>
      </trkpt>
      <trkpt lat="43.33975" lon="-1.75106">
        <ele>6.39</ele>
        <time>2021-07-05T18:15:35Z</time>
      </trkpt>
      <trkpt lat="43.33978" lon="-1.75097">
        <ele>6.87</ele>
        <time>2021-07-05T18:15:36Z</time>
      </trkpt>
      <trkpt lat="43.33981" lon="-1.75089">
        <ele>5.91</ele>
        <time>2021-07-05T18:15:37Z</time>
      </trkpt>
      <trkpt lat="43.33991" lon="-1.75053">
        <ele>6.87</ele>
        <time>2021-07-05T18:15:41Z</time>
      </trkpt>
      <trkpt lat="43.33993" lon="-1.75046">
        <ele>6.87</ele>
        <time>2021-07-05T18:15:42Z</time>
      </trkpt>
      <trkpt lat="43.33996" lon="-1.75039">
        <ele>6.87</ele>
        <time>2021-07-05T18:15:43Z</time>
      </trkpt>
      <trkpt lat="43.33999" lon="-1.75013">
        <ele>7.35</ele>
        <time>2021-07-05T18:15:47Z</time>
      </trkpt>
      <trkpt lat="43.34003" lon="-1.75008">
        <ele>7.35</ele>
        <time>2021-07-05T18:15:48Z</time>
      </trkpt>
      <trkpt lat="43.34006" lon="-1.75005">
        <ele>7.83</ele>
        <time>2021-07-05T18:15:49Z</time>
      </trkpt>
      <trkpt lat="43.3401" lon="-1.75003">
        <ele>7.83</ele>
        <time>2021-07-05T18:15:50Z</time>
      </trkpt>
      <trkpt lat="43.34013" lon="-1.75005">
        <ele>7.35</ele>
        <time>2021-07-05T18:15:51Z</time>
      </trkpt>
      <trkpt lat="43.34016" lon="-1.75007">
        <ele>7.35</ele>
        <time>2021-07-05T18:15:52Z</time>
      </trkpt>
      <trkpt lat="43.3404" lon="-1.74998">
        <ele>7.83</ele>
        <time>2021-07-05T18:16:00Z</time>
      </trkpt>
      <trkpt lat="43.34046" lon="-1.74992">
        <ele>7.83</ele>
        <time>2021-07-05T18:16:01Z</time>
      </trkpt>
      <trkpt lat="43.34046" lon="-1.74992">
        <ele>7.35</ele>
        <time>2021-07-05T18:16:02Z</time>
      </trkpt>
      <trkpt lat="43.34079" lon="-1.74944">
        <ele>6.87</ele>
        <time>2021-07-05T18:16:16Z</time>
      </trkpt>
      <trkpt lat="43.3409" lon="-1.74922">
        <ele>5.42</ele>
        <time>2021-07-05T18:16:29Z</time>
      </trkpt>
      <trkpt lat="43.34113" lon="-1.74867">
        <ele>7.35</ele>
        <time>2021-07-05T18:16:39Z</time>
      </trkpt>
      <trkpt lat="43.3413" lon="-1.74827">
        <ele>8.79</ele>
        <time>2021-07-05T18:16:43Z</time>
      </trkpt>
      <trkpt lat="43.34141" lon="-1.74713">
        <ele>9.75</ele>
        <time>2021-07-05T18:16:53Z</time>
      </trkpt>
      <trkpt lat="43.34128" lon="-1.74493">
        <ele>13.6</ele>
        <time>2021-07-05T18:17:08Z</time>
      </trkpt>
      <trkpt lat="43.34109" lon="-1.74237">
        <ele>26.57</ele>
        <time>2021-07-05T18:17:22Z</time>
      </trkpt>
      <trkpt lat="43.34089" lon="-1.73939">
        <ele>41.95</ele>
        <time>2021-07-05T18:17:34Z</time>
      </trkpt>
      <trkpt lat="43.34089" lon="-1.73621">
        <ele>56.86</ele>
        <time>2021-07-05T18:17:46Z</time>
      </trkpt>
      <trkpt lat="43.34101" lon="-1.73132">
        <ele>79.45</ele>
        <time>2021-07-05T18:18:03Z</time>
      </trkpt>
      <trkpt lat="43.34137" lon="-1.72953">
        <ele>88.1</ele>
        <time>2021-07-05T18:18:11Z</time>
      </trkpt>
      <trkpt lat="43.34235" lon="-1.72668">
        <ele>89.54</ele>
        <time>2021-07-05T18:18:22Z</time>
      </trkpt>
      <trkpt lat="43.3438" lon="-1.72386">
        <ele>80.41</ele>
        <time>2021-07-05T18:18:33Z</time>
      </trkpt>
      <trkpt lat="43.3452" lon="-1.72251">
        <ele>76.08</ele>
        <time>2021-07-05T18:18:40Z</time>
      </trkpt>
      <trkpt lat="43.34769" lon="-1.7202">
        <ele>64.55</ele>
        <time>2021-07-05T18:18:51Z</time>
      </trkpt>
      <trkpt lat="43.34956" lon="-1.71816">
        <ele>57.34</ele>
        <time>2021-07-05T18:19:01Z</time>
      </trkpt>
      <trkpt lat="43.35074" lon="-1.71769">
        <ele>51.57</ele>
        <time>2021-07-05T18:19:07Z</time>
      </trkpt>
      <trkpt lat="43.35314" lon="-1.71758">
        <ele>41.47</ele>
        <time>2021-07-05T18:19:17Z</time>
      </trkpt>
      <trkpt lat="43.35475" lon="-1.71717">
        <ele>33.78</ele>
        <time>2021-07-05T18:19:24Z</time>
      </trkpt>
      <trkpt lat="43.35597" lon="-1.71624">
        <ele>34.74</ele>
        <time>2021-07-05T18:19:30Z</time>
      </trkpt>
      <trkpt lat="43.35711" lon="-1.71464">
        <ele>27.53</ele>
        <time>2021-07-05T18:19:37Z</time>
      </trkpt>
      <trkpt lat="43.35782" lon="-1.71261">
        <ele>27.05</ele>
        <time>2021-07-05T18:19:44Z</time>
      </trkpt>
      <trkpt lat="43.35846" lon="-1.70882">
        <ele>22.25</ele>
        <time>2021-07-05T18:19:56Z</time>
      </trkpt>
      <trkpt lat="43.35841" lon="-1.70522">
        <ele>17.92</ele>
        <time>2021-07-05T18:20:07Z</time>
      </trkpt>
      <trkpt lat="43.35854" lon="-1.70198">
        <ele>13.12</ele>
        <time>2021-07-05T18:20:17Z</time>
      </trkpt>
      <trkpt lat="43.35919" lon="-1.69875">
        <ele>10.71</ele>
        <time>2021-07-05T18:20:27Z</time>
      </trkpt>
      <trkpt lat="43.36047" lon="-1.69537">
        <ele>10.23</ele>
        <time>2021-07-05T18:20:38Z</time>
      </trkpt>
      <trkpt lat="43.36224" lon="-1.69205">
        <ele>14.08</ele>
        <time>2021-07-05T18:20:50Z</time>
      </trkpt>
      <trkpt lat="43.36465" lon="-1.68869">
        <ele>16</ele>
        <time>2021-07-05T18:21:04Z</time>
      </trkpt>
      <trkpt lat="43.36788" lon="-1.68424">
        <ele>12.63</ele>
        <time>2021-07-05T18:21:22Z</time>
      </trkpt>
      <trkpt lat="43.3703" lon="-1.68014">
        <ele>13.12</ele>
        <time>2021-07-05T18:21:37Z</time>
      </trkpt>
      <trkpt lat="43.37182" lon="-1.67647">
        <ele>22.73</ele>
        <time>2021-07-05T18:21:49Z</time>
      </trkpt>
      <trkpt lat="43.37414" lon="-1.66991">
        <ele>27.05</ele>
        <time>2021-07-05T18:22:10Z</time>
      </trkpt>
      <trkpt lat="43.37475" lon="-1.66728">
        <ele>23.69</ele>
        <time>2021-07-05T18:22:18Z</time>
      </trkpt>
      <trkpt lat="43.37482" lon="-1.66443">
        <ele>21.29</ele>
        <time>2021-07-05T18:22:26Z</time>
      </trkpt>
      <trkpt lat="43.37436" lon="-1.66167">
        <ele>22.25</ele>
        <time>2021-07-05T18:22:34Z</time>
      </trkpt>
      <trkpt lat="43.37352" lon="-1.65788">
        <ele>23.69</ele>
        <time>2021-07-05T18:22:46Z</time>
      </trkpt>
      <trkpt lat="43.37346" lon="-1.65523">
        <ele>15.04</ele>
        <time>2021-07-05T18:22:54Z</time>
      </trkpt>
      <trkpt lat="43.37392" lon="-1.65263">
        <ele>7.83</ele>
        <time>2021-07-05T18:23:02Z</time>
      </trkpt>
      <trkpt lat="43.37476" lon="-1.65052">
        <ele>1.58</ele>
        <time>2021-07-05T18:23:09Z</time>
      </trkpt>
      <trkpt lat="43.3761" lon="-1.64852">
        <ele>1.58</ele>
        <time>2021-07-05T18:23:17Z</time>
      </trkpt>
      <trkpt lat="43.37866" lon="-1.64593">
        <ele>1.58</ele>
        <time>2021-07-05T18:23:29Z</time>
      </trkpt>
      <trkpt lat="43.38069" lon="-1.64471">
        <ele>3.5</ele>
        <time>2021-07-05T18:23:39Z</time>
      </trkpt>
      <trkpt lat="43.38352" lon="-1.64371">
        <ele>10.23</ele>
        <time>2021-07-05T18:23:51Z</time>
      </trkpt>
      <trkpt lat="43.38601" lon="-1.64245">
        <ele>20.81</ele>
        <time>2021-07-05T18:24:02Z</time>
      </trkpt>
      <trkpt lat="43.38928" lon="-1.64047">
        <ele>37.63</ele>
        <time>2021-07-05T18:24:17Z</time>
      </trkpt>
      <trkpt lat="43.39228" lon="-1.63824">
        <ele>47.24</ele>
        <time>2021-07-05T18:24:31Z</time>
      </trkpt>
      <trkpt lat="43.39471" lon="-1.6373">
        <ele>43.88</ele>
        <time>2021-07-05T18:24:40Z</time>
      </trkpt>
      <trkpt lat="43.39755" lon="-1.63694">
        <ele>32.34</ele>
        <time>2021-07-05T18:24:52Z</time>
      </trkpt>
      <trkpt lat="43.39972" lon="-1.63612">
        <ele>23.69</ele>
        <time>2021-07-05T18:25:01Z</time>
      </trkpt>
      <trkpt lat="43.4016" lon="-1.63463">
        <ele>19.36</ele>
        <time>2021-07-05T18:25:10Z</time>
      </trkpt>
      <trkpt lat="43.40342" lon="-1.63248">
        <ele>11.19</ele>
        <time>2021-07-05T18:25:20Z</time>
      </trkpt>
      <trkpt lat="43.4052" lon="-1.62958">
        <ele>11.19</ele>
        <time>2021-07-05T18:25:31Z</time>
      </trkpt>
      <trkpt lat="43.40752" lon="-1.62498">
        <ele>17.92</ele>
        <time>2021-07-05T18:25:47Z</time>
      </trkpt>
      <trkpt lat="43.40919" lon="-1.62231">
        <ele>23.69</ele>
        <time>2021-07-05T18:25:58Z</time>
      </trkpt>
      <trkpt lat="43.41046" lon="-1.61989">
        <ele>30.9</ele>
        <time>2021-07-05T18:26:07Z</time>
      </trkpt>
      <trkpt lat="43.4119" lon="-1.61625">
        <ele>39.55</ele>
        <time>2021-07-05T18:26:19Z</time>
      </trkpt>
      <trkpt lat="43.41339" lon="-1.61386">
        <ele>36.19</ele>
        <time>2021-07-05T18:26:28Z</time>
      </trkpt>
      <trkpt lat="43.41501" lon="-1.61102">
        <ele>31.86</ele>
        <time>2021-07-05T18:26:38Z</time>
      </trkpt>
      <trkpt lat="43.41587" lon="-1.60804">
        <ele>36.67</ele>
        <time>2021-07-05T18:26:47Z</time>
      </trkpt>
      <trkpt lat="43.41679" lon="-1.60532">
        <ele>47.24</ele>
        <time>2021-07-05T18:26:56Z</time>
      </trkpt>
      <trkpt lat="43.41841" lon="-1.6025">
        <ele>47.72</ele>
        <time>2021-07-05T18:27:07Z</time>
      </trkpt>
      <trkpt lat="43.41989" lon="-1.60059">
        <ele>45.32</ele>
        <time>2021-07-05T18:27:15Z</time>
      </trkpt>
      <trkpt lat="43.42284" lon="-1.5973">
        <ele>34.26</ele>
        <time>2021-07-05T18:27:30Z</time>
      </trkpt>
      <trkpt lat="43.42462" lon="-1.59443">
        <ele>25.61</ele>
        <time>2021-07-05T18:27:41Z</time>
      </trkpt>
      <trkpt lat="43.42719" lon="-1.5896">
        <ele>12.63</ele>
        <time>2021-07-05T18:27:58Z</time>
      </trkpt>
      <trkpt lat="43.42929" lon="-1.58651">
        <ele>6.87</ele>
        <time>2021-07-05T18:28:09Z</time>
      </trkpt>
      <trkpt lat="43.4303" lon="-1.58423">
        <ele>7.35</ele>
        <time>2021-07-05T18:28:18Z</time>
      </trkpt>
      <trkpt lat="43.43144" lon="-1.58003">
        <ele>6.39</ele>
        <time>2021-07-05T18:28:31Z</time>
      </trkpt>
      <trkpt lat="43.43262" lon="-1.57629">
        <ele>7.35</ele>
        <time>2021-07-05T18:28:45Z</time>
      </trkpt>
      <trkpt lat="43.43381" lon="-1.57424">
        <ele>10.71</ele>
        <time>2021-07-05T18:28:53Z</time>
      </trkpt>
      <trkpt lat="43.43548" lon="-1.57253">
        <ele>13.12</ele>
        <time>2021-07-05T18:29:01Z</time>
      </trkpt>
      <trkpt lat="43.43808" lon="-1.57055">
        <ele>16.48</ele>
        <time>2021-07-05T18:29:12Z</time>
      </trkpt>
      <trkpt lat="43.44043" lon="-1.56825">
        <ele>20.32</ele>
        <time>2021-07-05T18:29:23Z</time>
      </trkpt>
      <trkpt lat="43.44249" lon="-1.56696">
        <ele>25.13</ele>
        <time>2021-07-05T18:29:32Z</time>
      </trkpt>
      <trkpt lat="43.44491" lon="-1.56543">
        <ele>31.86</ele>
        <time>2021-07-05T18:29:42Z</time>
      </trkpt>
      <trkpt lat="43.44648" lon="-1.56362">
        <ele>39.07</ele>
        <time>2021-07-05T18:29:51Z</time>
      </trkpt>
      <trkpt lat="43.4476" lon="-1.56169">
        <ele>44.36</ele>
        <time>2021-07-05T18:30:00Z</time>
      </trkpt>
      <trkpt lat="43.44841" lon="-1.55922">
        <ele>52.05</ele>
        <time>2021-07-05T18:30:09Z</time>
      </trkpt>
      <trkpt lat="43.44861" lon="-1.55693">
        <ele>57.34</ele>
        <time>2021-07-05T18:30:17Z</time>
      </trkpt>
      <trkpt lat="43.4485" lon="-1.55538">
        <ele>62.14</ele>
        <time>2021-07-05T18:30:25Z</time>
      </trkpt>
      <trkpt lat="43.44818" lon="-1.55415">
        <ele>65.51</ele>
        <time>2021-07-05T18:30:35Z</time>
      </trkpt>
      <trkpt lat="43.44747" lon="-1.55291">
        <ele>63.1</ele>
        <time>2021-07-05T18:30:47Z</time>
      </trkpt>
      <trkpt lat="43.44737" lon="-1.55271">
        <ele>61.66</ele>
        <time>2021-07-05T18:30:49Z</time>
      </trkpt>
      <trkpt lat="43.44732" lon="-1.5526">
        <ele>61.18</ele>
        <time>2021-07-05T18:30:50Z</time>
      </trkpt>
      <trkpt lat="43.4473" lon="-1.55248">
        <ele>59.74</ele>
        <time>2021-07-05T18:30:51Z</time>
      </trkpt>
      <trkpt lat="43.44727" lon="-1.55234">
        <ele>59.26</ele>
        <time>2021-07-05T18:30:52Z</time>
      </trkpt>
      <trkpt lat="43.44726" lon="-1.55222">
        <ele>58.3</ele>
        <time>2021-07-05T18:30:53Z</time>
      </trkpt>
      <trkpt lat="43.44726" lon="-1.55207">
        <ele>58.3</ele>
        <time>2021-07-05T18:30:54Z</time>
      </trkpt>
      <trkpt lat="43.44729" lon="-1.55197">
        <ele>57.82</ele>
        <time>2021-07-05T18:30:55Z</time>
      </trkpt>
      <trkpt lat="43.44734" lon="-1.55185">
        <ele>57.82</ele>
        <time>2021-07-05T18:30:56Z</time>
      </trkpt>
      <trkpt lat="43.4474" lon="-1.55172">
        <ele>57.34</ele>
        <time>2021-07-05T18:30:57Z</time>
      </trkpt>
      <trkpt lat="43.44745" lon="-1.5516">
        <ele>57.34</ele>
        <time>2021-07-05T18:30:58Z</time>
      </trkpt>
      <trkpt lat="43.44751" lon="-1.55148">
        <ele>56.86</ele>
        <time>2021-07-05T18:30:59Z</time>
      </trkpt>
      <trkpt lat="43.4477" lon="-1.55127">
        <ele>55.41</ele>
        <time>2021-07-05T18:31:00Z</time>
      </trkpt>
      <trkpt lat="43.4477" lon="-1.55127">
        <ele>54.93</ele>
        <time>2021-07-05T18:31:01Z</time>
      </trkpt>
      <trkpt lat="43.44793" lon="-1.5511">
        <ele>54.93</ele>
        <time>2021-07-05T18:31:02Z</time>
      </trkpt>
      <trkpt lat="43.44793" lon="-1.5511">
        <ele>53.97</ele>
        <time>2021-07-05T18:31:03Z</time>
      </trkpt>
      <trkpt lat="43.44821" lon="-1.55099">
        <ele>53.49</ele>
        <time>2021-07-05T18:31:04Z</time>
      </trkpt>
      <trkpt lat="43.44857" lon="-1.55101">
        <ele>53.97</ele>
        <time>2021-07-05T18:31:07Z</time>
      </trkpt>
      <trkpt lat="43.44857" lon="-1.55101">
        <ele>54.45</ele>
        <time>2021-07-05T18:31:08Z</time>
      </trkpt>
      <trkpt lat="43.4487" lon="-1.55108">
        <ele>54.45</ele>
        <time>2021-07-05T18:31:09Z</time>
      </trkpt>
      <trkpt lat="43.44884" lon="-1.55115">
        <ele>54.93</ele>
        <time>2021-07-05T18:31:10Z</time>
      </trkpt>
      <trkpt lat="43.44893" lon="-1.55123">
        <ele>56.86</ele>
        <time>2021-07-05T18:31:11Z</time>
      </trkpt>
      <trkpt lat="43.44903" lon="-1.55139">
        <ele>58.3</ele>
        <time>2021-07-05T18:31:12Z</time>
      </trkpt>
      <trkpt lat="43.44913" lon="-1.55154">
        <ele>58.78</ele>
        <time>2021-07-05T18:31:13Z</time>
      </trkpt>
      <trkpt lat="43.44928" lon="-1.55173">
        <ele>59.26</ele>
        <time>2021-07-05T18:31:14Z</time>
      </trkpt>
      <trkpt lat="43.45012" lon="-1.55367">
        <ele>64.55</ele>
        <time>2021-07-05T18:31:27Z</time>
      </trkpt>
      <trkpt lat="43.45035" lon="-1.5545">
        <ele>65.51</ele>
        <time>2021-07-05T18:31:35Z</time>
      </trkpt>
      <trkpt lat="43.45041" lon="-1.55469">
        <ele>63.58</ele>
        <time>2021-07-05T18:31:44Z</time>
      </trkpt>
      <trkpt lat="43.45043" lon="-1.55475">
        <ele>63.58</ele>
        <time>2021-07-05T18:31:46Z</time>
      </trkpt>
      <trkpt lat="43.45044" lon="-1.55481">
        <ele>63.58</ele>
        <time>2021-07-05T18:31:47Z</time>
      </trkpt>
      <trkpt lat="43.45046" lon="-1.55488">
        <ele>64.07</ele>
        <time>2021-07-05T18:31:48Z</time>
      </trkpt>
      <trkpt lat="43.45068" lon="-1.55585">
        <ele>67.91</ele>
        <time>2021-07-05T18:31:58Z</time>
      </trkpt>
      <trkpt lat="43.45077" lon="-1.55602">
        <ele>68.39</ele>
        <time>2021-07-05T18:32:01Z</time>
      </trkpt>
      <trkpt lat="43.4508" lon="-1.55608">
        <ele>68.87</ele>
        <time>2021-07-05T18:32:02Z</time>
      </trkpt>
      <trkpt lat="43.45084" lon="-1.55613">
        <ele>68.87</ele>
        <time>2021-07-05T18:32:03Z</time>
      </trkpt>
      <trkpt lat="43.45088" lon="-1.55619">
        <ele>68.87</ele>
        <time>2021-07-05T18:32:04Z</time>
      </trkpt>
      <trkpt lat="43.45092" lon="-1.55625">
        <ele>69.35</ele>
        <time>2021-07-05T18:32:05Z</time>
      </trkpt>
      <trkpt lat="43.45096" lon="-1.55629">
        <ele>69.35</ele>
        <time>2021-07-05T18:32:06Z</time>
      </trkpt>
      <trkpt lat="43.45101" lon="-1.55635">
        <ele>69.83</ele>
        <time>2021-07-05T18:32:07Z</time>
      </trkpt>
      <trkpt lat="43.45107" lon="-1.55643">
        <ele>70.31</ele>
        <time>2021-07-05T18:32:08Z</time>
      </trkpt>
      <trkpt lat="43.45111" lon="-1.5566">
        <ele>70.79</ele>
        <time>2021-07-05T18:32:09Z</time>
      </trkpt>
      <trkpt lat="43.4511" lon="-1.55667">
        <ele>71.27</ele>
        <time>2021-07-05T18:32:10Z</time>
      </trkpt>
      <trkpt lat="43.4511" lon="-1.55667">
        <ele>71.27</ele>
        <time>2021-07-05T18:32:11Z</time>
      </trkpt>
      <trkpt lat="43.45108" lon="-1.55682">
        <ele>71.27</ele>
        <time>2021-07-05T18:32:12Z</time>
      </trkpt>
      <trkpt lat="43.45105" lon="-1.55693">
        <ele>71.76</ele>
        <time>2021-07-05T18:32:13Z</time>
      </trkpt>
      <trkpt lat="43.45105" lon="-1.55693">
        <ele>72.72</ele>
        <time>2021-07-05T18:32:14Z</time>
      </trkpt>
      <trkpt lat="43.45101" lon="-1.55708">
        <ele>73.68</ele>
        <time>2021-07-05T18:32:15Z</time>
      </trkpt>
      <trkpt lat="43.45097" lon="-1.55693">
        <ele>74.16</ele>
        <time>2021-07-05T18:32:16Z</time>
      </trkpt>
      <trkpt lat="43.45095" lon="-1.55716">
        <ele>74.16</ele>
        <time>2021-07-05T18:32:17Z</time>
      </trkpt>
      <trkpt lat="43.45091" lon="-1.55723">
        <ele>73.68</ele>
        <time>2021-07-05T18:32:18Z</time>
      </trkpt>
      <trkpt lat="43.45075" lon="-1.55719">
        <ele>73.2</ele>
        <time>2021-07-05T18:32:19Z</time>
      </trkpt>
      <trkpt lat="43.45072" lon="-1.5573">
        <ele>73.2</ele>
        <time>2021-07-05T18:32:20Z</time>
      </trkpt>
      <trkpt lat="43.45033" lon="-1.55868">
        <ele>69.83</ele>
        <time>2021-07-05T18:32:29Z</time>
      </trkpt>
      <trkpt lat="43.45" lon="-1.56003">
        <ele>67.43</ele>
        <time>2021-07-05T18:32:37Z</time>
      </trkpt>
      <trkpt lat="43.44998" lon="-1.56019">
        <ele>67.43</ele>
        <time>2021-07-05T18:32:38Z</time>
      </trkpt>
      <trkpt lat="43.44995" lon="-1.56036">
        <ele>67.43</ele>
        <time>2021-07-05T18:32:39Z</time>
      </trkpt>
      <trkpt lat="43.44995" lon="-1.56053">
        <ele>66.95</ele>
        <time>2021-07-05T18:32:40Z</time>
      </trkpt>
      <trkpt lat="43.44996" lon="-1.56071">
        <ele>66.95</ele>
        <time>2021-07-05T18:32:41Z</time>
      </trkpt>
      <trkpt lat="43.45" lon="-1.56089">
        <ele>66.47</ele>
        <time>2021-07-05T18:32:42Z</time>
      </trkpt>
      <trkpt lat="43.45003" lon="-1.56107">
        <ele>66.47</ele>
        <time>2021-07-05T18:32:43Z</time>
      </trkpt>
      <trkpt lat="43.45079" lon="-1.56495">
        <ele>58.3</ele>
        <time>2021-07-05T18:33:04Z</time>
      </trkpt>
      <trkpt lat="43.45093" lon="-1.56606">
        <ele>56.86</ele>
        <time>2021-07-05T18:33:12Z</time>
      </trkpt>
      <trkpt lat="43.45093" lon="-1.56624">
        <ele>57.34</ele>
        <time>2021-07-05T18:33:13Z</time>
      </trkpt>
      <trkpt lat="43.45091" lon="-1.56659">
        <ele>58.78</ele>
        <time>2021-07-05T18:33:14Z</time>
      </trkpt>
      <trkpt lat="43.45091" lon="-1.56659">
        <ele>60.22</ele>
        <time>2021-07-05T18:33:15Z</time>
      </trkpt>
      <trkpt lat="43.45081" lon="-1.56697">
        <ele>61.66</ele>
        <time>2021-07-05T18:33:16Z</time>
      </trkpt>
      <trkpt lat="43.45081" lon="-1.56697">
        <ele>63.1</ele>
        <time>2021-07-05T18:33:17Z</time>
      </trkpt>
      <trkpt lat="43.45074" lon="-1.56713">
        <ele>63.58</ele>
        <time>2021-07-05T18:33:18Z</time>
      </trkpt>
      <trkpt lat="43.45058" lon="-1.56747">
        <ele>63.1</ele>
        <time>2021-07-05T18:33:19Z</time>
      </trkpt>
      <trkpt lat="43.44927" lon="-1.57026">
        <ele>69.83</ele>
        <time>2021-07-05T18:33:36Z</time>
      </trkpt>
      <trkpt lat="43.44814" lon="-1.57255">
        <ele>69.35</ele>
        <time>2021-07-05T18:33:52Z</time>
      </trkpt>
      <trkpt lat="43.44788" lon="-1.57309">
        <ele>69.35</ele>
        <time>2021-07-05T18:33:57Z</time>
      </trkpt>
      <trkpt lat="43.44787" lon="-1.5733">
        <ele>68.39</ele>
        <time>2021-07-05T18:33:58Z</time>
      </trkpt>
      <trkpt lat="43.44785" lon="-1.57339">
        <ele>67.91</ele>
        <time>2021-07-05T18:33:59Z</time>
      </trkpt>
      <trkpt lat="43.44785" lon="-1.57339">
        <ele>67.43</ele>
        <time>2021-07-05T18:34:00Z</time>
      </trkpt>
      <trkpt lat="43.44784" lon="-1.57343">
        <ele>67.91</ele>
        <time>2021-07-05T18:34:01Z</time>
      </trkpt>
      <trkpt lat="43.44772" lon="-1.57344">
        <ele>68.39</ele>
        <time>2021-07-05T18:34:02Z</time>
      </trkpt>
      <trkpt lat="43.44762" lon="-1.57357">
        <ele>68.87</ele>
        <time>2021-07-05T18:34:03Z</time>
      </trkpt>
      <trkpt lat="43.44757" lon="-1.57376">
        <ele>68.87</ele>
        <time>2021-07-05T18:34:04Z</time>
      </trkpt>
      <trkpt lat="43.44757" lon="-1.57376">
        <ele>68.87</ele>
        <time>2021-07-05T18:34:05Z</time>
      </trkpt>
      <trkpt lat="43.44754" lon="-1.57387">
        <ele>66.95</ele>
        <time>2021-07-05T18:34:06Z</time>
      </trkpt>
      <trkpt lat="43.44751" lon="-1.57399">
        <ele>65.51</ele>
        <time>2021-07-05T18:34:07Z</time>
      </trkpt>
      <trkpt lat="43.44723" lon="-1.57562">
        <ele>63.1</ele>
        <time>2021-07-05T18:34:17Z</time>
      </trkpt>
      <trkpt lat="43.4471" lon="-1.57649">
        <ele>65.51</ele>
        <time>2021-07-05T18:34:25Z</time>
      </trkpt>
      <trkpt lat="43.44709" lon="-1.57656">
        <ele>65.51</ele>
        <time>2021-07-05T18:34:26Z</time>
      </trkpt>
      <trkpt lat="43.44709" lon="-1.5766">
        <ele>65.99</ele>
        <time>2021-07-05T18:34:27Z</time>
      </trkpt>
      <trkpt lat="43.44716" lon="-1.57666">
        <ele>65.99</ele>
        <time>2021-07-05T18:34:28Z</time>
      </trkpt>
      <trkpt lat="43.44718" lon="-1.57668">
        <ele>65.99</ele>
        <time>2021-07-05T18:34:29Z</time>
      </trkpt>
      <trkpt lat="43.44722" lon="-1.57675">
        <ele>65.99</ele>
        <time>2021-07-05T18:34:30Z</time>
      </trkpt>
      <trkpt lat="43.44724" lon="-1.57681">
        <ele>66.47</ele>
        <time>2021-07-05T18:34:31Z</time>
      </trkpt>
      <trkpt lat="43.44729" lon="-1.57688">
        <ele>66.47</ele>
        <time>2021-07-05T18:34:32Z</time>
      </trkpt>
      <trkpt lat="43.44736" lon="-1.57687">
        <ele>66.47</ele>
        <time>2021-07-05T18:34:33Z</time>
      </trkpt>
      <trkpt lat="43.44743" lon="-1.57686">
        <ele>66.95</ele>
        <time>2021-07-05T18:34:34Z</time>
      </trkpt>
      <trkpt lat="43.44751" lon="-1.57685">
        <ele>66.95</ele>
        <time>2021-07-05T18:34:35Z</time>
      </trkpt>
      <trkpt lat="43.4476" lon="-1.57684">
        <ele>66.47</ele>
        <time>2021-07-05T18:34:36Z</time>
      </trkpt>
      <trkpt lat="43.44849" lon="-1.57666">
        <ele>62.62</ele>
        <time>2021-07-05T18:34:46Z</time>
      </trkpt>
      <trkpt lat="43.44859" lon="-1.57662">
        <ele>61.66</ele>
        <time>2021-07-05T18:34:47Z</time>
      </trkpt>
      <trkpt lat="43.44933" lon="-1.57639">
        <ele>64.55</ele>
        <time>2021-07-05T18:34:55Z</time>
      </trkpt>
      <trkpt lat="43.44933" lon="-1.57639">
        <ele>64.55</ele>
        <time>2021-07-05T18:34:56Z</time>
      </trkpt>
      <trkpt lat="43.4494" lon="-1.57632">
        <ele>64.07</ele>
        <time>2021-07-05T18:34:57Z</time>
      </trkpt>
      <trkpt lat="43.44945" lon="-1.57625">
        <ele>64.07</ele>
        <time>2021-07-05T18:34:58Z</time>
      </trkpt>
      <trkpt lat="43.44951" lon="-1.57618">
        <ele>63.58</ele>
        <time>2021-07-05T18:34:59Z</time>
      </trkpt>
      <trkpt lat="43.44989" lon="-1.57574">
        <ele>59.74</ele>
        <time>2021-07-05T18:35:07Z</time>
      </trkpt>
      <trkpt lat="43.45048" lon="-1.57504">
        <ele>55.89</ele>
        <time>2021-07-05T18:35:20Z</time>
      </trkpt>
      <trkpt lat="43.45082" lon="-1.57465">
        <ele>54.45</ele>
        <time>2021-07-05T18:35:27Z</time>
      </trkpt>
      <trkpt lat="43.45087" lon="-1.57463">
        <ele>53.97</ele>
        <time>2021-07-05T18:35:28Z</time>
      </trkpt>
      <trkpt lat="43.45097" lon="-1.5746">
        <ele>53.49</ele>
        <time>2021-07-05T18:35:31Z</time>
      </trkpt>
      <trkpt lat="43.45101" lon="-1.57457">
        <ele>53.01</ele>
        <time>2021-07-05T18:35:32Z</time>
      </trkpt>
      <trkpt lat="43.45168" lon="-1.57414">
        <ele>48.68</ele>
        <time>2021-07-05T18:35:40Z</time>
      </trkpt>
      <trkpt lat="43.4526" lon="-1.57392">
        <ele>44.84</ele>
        <time>2021-07-05T18:35:50Z</time>
      </trkpt>
      <trkpt lat="43.454" lon="-1.57363">
        <ele>33.3</ele>
        <time>2021-07-05T18:36:03Z</time>
      </trkpt>
      <trkpt lat="43.45542" lon="-1.57331">
        <ele>30.9</ele>
        <time>2021-07-05T18:36:17Z</time>
      </trkpt>
      <trkpt lat="43.45554" lon="-1.57328">
        <ele>30.42</ele>
        <time>2021-07-05T18:36:18Z</time>
      </trkpt>
      <trkpt lat="43.45565" lon="-1.5732">
        <ele>29.46</ele>
        <time>2021-07-05T18:36:19Z</time>
      </trkpt>
      <trkpt lat="43.45575" lon="-1.57313">
        <ele>29.94</ele>
        <time>2021-07-05T18:36:20Z</time>
      </trkpt>
      <trkpt lat="43.45662" lon="-1.57242">
        <ele>28.02</ele>
        <time>2021-07-05T18:36:29Z</time>
      </trkpt>
      <trkpt lat="43.45672" lon="-1.57237">
        <ele>28.5</ele>
        <time>2021-07-05T18:36:30Z</time>
      </trkpt>
      <trkpt lat="43.45683" lon="-1.57235">
        <ele>28.02</ele>
        <time>2021-07-05T18:36:31Z</time>
      </trkpt>
      <trkpt lat="43.45694" lon="-1.57235">
        <ele>28.02</ele>
        <time>2021-07-05T18:36:32Z</time>
      </trkpt>
      <trkpt lat="43.45707" lon="-1.57236">
        <ele>28.02</ele>
        <time>2021-07-05T18:36:33Z</time>
      </trkpt>
      <trkpt lat="43.45793" lon="-1.57247">
        <ele>23.69</ele>
        <time>2021-07-05T18:36:41Z</time>
      </trkpt>
      <trkpt lat="43.458" lon="-1.57248">
        <ele>23.21</ele>
        <time>2021-07-05T18:36:42Z</time>
      </trkpt>
      <trkpt lat="43.45807" lon="-1.57247">
        <ele>23.21</ele>
        <time>2021-07-05T18:36:43Z</time>
      </trkpt>
      <trkpt lat="43.45811" lon="-1.5724">
        <ele>23.21</ele>
        <time>2021-07-05T18:36:44Z</time>
      </trkpt>
      <trkpt lat="43.45813" lon="-1.57234">
        <ele>22.73</ele>
        <time>2021-07-05T18:36:45Z</time>
      </trkpt>
      <trkpt lat="43.45819" lon="-1.57225">
        <ele>22.25</ele>
        <time>2021-07-05T18:36:46Z</time>
      </trkpt>
      <trkpt lat="43.45824" lon="-1.57221">
        <ele>21.77</ele>
        <time>2021-07-05T18:36:47Z</time>
      </trkpt>
      <trkpt lat="43.45832" lon="-1.57225">
        <ele>21.77</ele>
        <time>2021-07-05T18:36:48Z</time>
      </trkpt>
      <trkpt lat="43.45838" lon="-1.57235">
        <ele>21.77</ele>
        <time>2021-07-05T18:36:49Z</time>
      </trkpt>
      <trkpt lat="43.45838" lon="-1.57235">
        <ele>21.77</ele>
        <time>2021-07-05T18:36:50Z</time>
      </trkpt>
      <trkpt lat="43.4584" lon="-1.57239">
        <ele>21.29</ele>
        <time>2021-07-05T18:36:51Z</time>
      </trkpt>
      <trkpt lat="43.45849" lon="-1.57241">
        <ele>21.29</ele>
        <time>2021-07-05T18:36:52Z</time>
      </trkpt>
      <trkpt lat="43.45853" lon="-1.57239">
        <ele>20.81</ele>
        <time>2021-07-05T18:36:53Z</time>
      </trkpt>
      <trkpt lat="43.45858" lon="-1.57236">
        <ele>19.84</ele>
        <time>2021-07-05T18:36:54Z</time>
      </trkpt>
      <trkpt lat="43.45865" lon="-1.57234">
        <ele>18.88</ele>
        <time>2021-07-05T18:36:55Z</time>
      </trkpt>
      <trkpt lat="43.45955" lon="-1.57185">
        <ele>10.23</ele>
        <time>2021-07-05T18:37:05Z</time>
      </trkpt>
      <trkpt lat="43.46095" lon="-1.57096">
        <ele>10.71</ele>
        <time>2021-07-05T18:37:18Z</time>
      </trkpt>
      <trkpt lat="43.46149" lon="-1.57062">
        <ele>14.08</ele>
        <time>2021-07-05T18:37:24Z</time>
      </trkpt>
      <trkpt lat="43.46158" lon="-1.5706">
        <ele>15.04</ele>
        <time>2021-07-05T18:37:25Z</time>
      </trkpt>
      <trkpt lat="43.46166" lon="-1.57059">
        <ele>15.52</ele>
        <time>2021-07-05T18:37:26Z</time>
      </trkpt>
      <trkpt lat="43.46175" lon="-1.57058">
        <ele>16.48</ele>
        <time>2021-07-05T18:37:27Z</time>
      </trkpt>
      <trkpt lat="43.46184" lon="-1.57056">
        <ele>16.96</ele>
        <time>2021-07-05T18:37:28Z</time>
      </trkpt>
      <trkpt lat="43.46191" lon="-1.57055">
        <ele>17.44</ele>
        <time>2021-07-05T18:37:29Z</time>
      </trkpt>
      <trkpt lat="43.46197" lon="-1.5706">
        <ele>17.92</ele>
        <time>2021-07-05T18:37:30Z</time>
      </trkpt>
      <trkpt lat="43.46203" lon="-1.57066">
        <ele>17.92</ele>
        <time>2021-07-05T18:37:31Z</time>
      </trkpt>
      <trkpt lat="43.46209" lon="-1.57071">
        <ele>18.4</ele>
        <time>2021-07-05T18:37:32Z</time>
      </trkpt>
      <trkpt lat="43.4622" lon="-1.57066">
        <ele>18.88</ele>
        <time>2021-07-05T18:37:33Z</time>
      </trkpt>
      <trkpt lat="43.46229" lon="-1.57063">
        <ele>19.36</ele>
        <time>2021-07-05T18:37:34Z</time>
      </trkpt>
      <trkpt lat="43.46236" lon="-1.57066">
        <ele>19.84</ele>
        <time>2021-07-05T18:37:35Z</time>
      </trkpt>
      <trkpt lat="43.46249" lon="-1.57079">
        <ele>19.84</ele>
        <time>2021-07-05T18:37:36Z</time>
      </trkpt>
      <trkpt lat="43.46249" lon="-1.57079">
        <ele>20.32</ele>
        <time>2021-07-05T18:37:37Z</time>
      </trkpt>
      <trkpt lat="43.46256" lon="-1.57076">
        <ele>20.32</ele>
        <time>2021-07-05T18:37:38Z</time>
      </trkpt>
      <trkpt lat="43.46263" lon="-1.57073">
        <ele>20.32</ele>
        <time>2021-07-05T18:37:39Z</time>
      </trkpt>
      <trkpt lat="43.46361" lon="-1.57066">
        <ele>21.29</ele>
        <time>2021-07-05T18:37:50Z</time>
      </trkpt>
      <trkpt lat="43.46406" lon="-1.57069">
        <ele>22.73</ele>
        <time>2021-07-05T18:37:54Z</time>
      </trkpt>
      <trkpt lat="43.46415" lon="-1.57074">
        <ele>22.25</ele>
        <time>2021-07-05T18:37:55Z</time>
      </trkpt>
      <trkpt lat="43.46415" lon="-1.57074">
        <ele>20.81</ele>
        <time>2021-07-05T18:37:56Z</time>
      </trkpt>
      <trkpt lat="43.46425" lon="-1.57078">
        <ele>19.36</ele>
        <time>2021-07-05T18:37:57Z</time>
      </trkpt>
      <trkpt lat="43.46441" lon="-1.5709">
        <ele>17.44</ele>
        <time>2021-07-05T18:37:58Z</time>
      </trkpt>
      <trkpt lat="43.46449" lon="-1.57098">
        <ele>16.48</ele>
        <time>2021-07-05T18:37:59Z</time>
      </trkpt>
      <trkpt lat="43.46518" lon="-1.57167">
        <ele>9.75</ele>
        <time>2021-07-05T18:38:10Z</time>
      </trkpt>
      <trkpt lat="43.46524" lon="-1.57167">
        <ele>9.75</ele>
        <time>2021-07-05T18:38:11Z</time>
      </trkpt>
      <trkpt lat="43.46529" lon="-1.57167">
        <ele>9.27</ele>
        <time>2021-07-05T18:38:12Z</time>
      </trkpt>
      <trkpt lat="43.46529" lon="-1.57167">
        <ele>9.75</ele>
        <time>2021-07-05T18:38:13Z</time>
      </trkpt>
      <trkpt lat="43.46534" lon="-1.57167">
        <ele>9.75</ele>
        <time>2021-07-05T18:38:14Z</time>
      </trkpt>
      <trkpt lat="43.4654" lon="-1.57167">
        <ele>9.75</ele>
        <time>2021-07-05T18:38:15Z</time>
      </trkpt>
      <trkpt lat="43.46569" lon="-1.57167">
        <ele>8.79</ele>
        <time>2021-07-05T18:38:25Z</time>
      </trkpt>
      <trkpt lat="43.46589" lon="-1.5717">
        <ele>9.27</ele>
        <time>2021-07-05T18:38:43Z</time>
      </trkpt>
    </trkseg>
  </trk>
</gpx>